Time;durP1;ratioP1;P1;durP2;ratioP2;P2;SDS_P1;SDS_P2;PMS_P1;PMS_P2;Temp;Humidity;BMP_temperature;BMP_pressure;BME280_temperature;BME280_humidity;BME280_pressure;Samples;Min_cycle;Max_cycle;Signal;HPM_P1;HPM_P2
2022/04/30 00:00:16;;;;;;;2.30;0.87;;;12.50;99.90;;;;;;5004460;28;20191;-83
2022/04/30 00:02:41;;;;;;;0.63;0.63;;;12.50;99.90;;;;;;5011020;28;20234;-83
2022/04/30 00:05:08;;;;;;;0.57;0.50;;;12.40;99.90;;;;;;5003910;28;20182;-83
2022/04/30 00:07:33;;;;;;;1.03;0.80;;;12.40;99.90;;;;;;5007977;28;20228;-83
2022/04/30 00:09:59;;;;;;;2.20;1.17;;;12.40;99.90;;;;;;5015908;28;21262;-83
2022/04/30 00:12:25;;;;;;;0.97;0.97;;;12.40;99.90;;;;;;5002080;28;21061;-83
2022/04/30 00:14:51;;;;;;;1.23;0.50;;;12.40;99.90;;;;;;5007834;28;20183;-83
2022/04/30 00:17:16;;;;;;;0.97;0.90;;;12.40;99.90;;;;;;5000600;28;20556;-83
2022/04/30 00:19:42;;;;;;;1.03;0.97;;;12.30;99.90;;;;;;5008315;28;20242;-82
2022/04/30 00:22:09;;;;;;;2.33;0.93;;;12.30;99.90;;;;;;5006245;28;20710;-83
2022/04/30 00:24:35;;;;;;;1.23;1.13;;;12.30;99.90;;;;;;5001655;28;20711;-83
2022/04/30 00:27:01;;;;;;;1.40;1.23;;;12.30;99.90;;;;;;5006331;28;20190;-83
2022/04/30 00:29:31;;;;;;;1.30;1.20;;;12.30;99.90;;;;;;5007881;28;20184;-84
2022/04/30 00:32:00;;;;;;;0.90;0.90;;;12.50;99.90;;;;;;5016050;28;20208;-83
2022/04/30 00:34:25;;;;;;;0.50;0.43;;;12.40;99.90;;;;;;4999646;28;20215;-83
2022/04/30 00:36:51;;;;;;;4.23;0.83;;;12.60;99.90;;;;;;5001382;28;20214;-83
2022/04/30 00:39:17;;;;;;;0.40;0.40;;;12.50;99.90;;;;;;5001460;28;20218;-83
2022/04/30 00:41:44;;;;;;;0.77;0.77;;;12.60;99.90;;;;;;5006383;28;20739;-83
2022/04/30 00:44:11;;;;;;;0.87;0.83;;;12.80;99.90;;;;;;5000889;28;20171;-83
2022/04/30 00:46:36;;;;;;;0.77;0.37;;;12.90;99.90;;;;;;5014542;28;20606;-83
2022/04/30 00:49:03;;;;;;;1.27;0.57;;;13.00;99.90;;;;;;5001829;28;20207;-83
2022/04/30 00:51:29;;;;;;;2.03;1.23;;;13.10;99.90;;;;;;5006313;28;20200;-83
2022/04/30 00:53:56;;;;;;;0.60;0.60;;;13.10;99.90;;;;;;4999830;28;20186;-83
2022/04/30 00:56:29;;;;;;;0.60;0.60;;;13.10;99.90;;;;;;5005992;28;20190;-83
2022/04/30 00:58:56;;;;;;;2.43;0.70;;;13.10;99.90;;;;;;5016229;28;20247;-83
2022/04/30 01:01:24;;;;;;;0.70;0.70;;;13.10;99.90;;;;;;5000195;28;20301;-83
2022/04/30 01:03:50;;;;;;;2.87;0.93;;;13.10;99.90;;;;;;5005981;28;20775;-83
2022/04/30 01:07:02;;;;;;;0.77;0.77;;;13.10;99.90;;;;;;5005788;28;20274;-83
2022/04/30 01:09:29;;;;;;;0.53;0.53;;;13.20;99.90;;;;;;4995740;28;20601;-83
2022/04/30 01:11:57;;;;;;;1.97;1.17;;;13.20;99.90;;;;;;5017086;28;20203;-83
2022/04/30 01:14:26;;;;;;;2.87;0.60;;;13.20;99.90;;;;;;5006559;28;20185;-83
2022/04/30 01:16:52;;;;;;;1.67;1.10;;;13.20;99.90;;;;;;4999637;28;20185;-83
2022/04/30 01:19:20;;;;;;;0.73;0.70;;;13.10;99.90;;;;;;4999921;28;20193;-83
2022/04/30 01:21:51;;;;;;;1.13;0.60;;;13.10;99.90;;;;;;5005445;28;20210;-82
2022/04/30 01:24:28;;;;;;;0.63;0.63;;;12.90;99.90;;;;;;5005346;28;20277;-83
2022/04/30 01:26:55;;;;;;;0.90;0.90;;;12.80;99.90;;;;;;5005971;28;20589;-84
2022/04/30 01:29:23;;;;;;;0.63;0.63;;;12.70;99.90;;;;;;5006299;28;20261;-83
2022/04/30 01:37:26;;;;;;;2.53;1.10;;;12.00;99.90;;;;;;5001183;28;20191;-83
2022/04/30 01:40:00;;;;;;;1.77;0.87;;;12.10;99.90;;;;;;5000271;28;20211;-83
2022/04/30 01:42:29;;;;;;;1.00;1.00;;;11.70;99.90;;;;;;4999568;28;20584;-83
2022/04/30 01:44:57;;;;;;;1.37;0.97;;;11.60;99.90;;;;;;5005844;28;20193;-83
2022/04/30 01:47:23;;;;;;;0.80;0.80;;;11.30;99.90;;;;;;5004868;28;20219;-83
2022/04/30 01:49:50;;;;;;;1.37;1.30;;;11.00;99.90;;;;;;4999135;28;20275;-83
2022/04/30 01:52:16;;;;;;;2.73;1.13;;;10.70;99.90;;;;;;5014543;28;20213;-83
2022/04/30 01:54:42;;;;;;;0.40;0.40;;;10.60;99.90;;;;;;5004778;28;20195;-83
2022/04/30 01:57:08;;;;;;;0.40;0.40;;;10.40;99.90;;;;;;5006258;28;20200;-83
2022/04/30 01:59:34;;;;;;;1.30;1.23;;;10.30;99.90;;;;;;4998632;28;20673;-83
2022/04/30 02:02:01;;;;;;;3.87;1.00;;;10.20;99.90;;;;;;5004463;28;20211;-83
2022/04/30 02:04:28;;;;;;;1.23;1.10;;;10.20;99.90;;;;;;5004800;28;20187;-83
2022/04/30 02:06:55;;;;;;;1.17;1.17;;;10.00;99.90;;;;;;5005184;28;20199;-83
2022/04/30 02:09:22;;;;;;;1.60;0.90;;;10.00;99.90;;;;;;5005216;28;20179;-83
2022/04/30 02:11:48;;;;;;;2.43;1.90;;;9.90;99.90;;;;;;5004751;28;20211;-84
2022/04/30 02:14:15;;;;;;;1.53;1.10;;;9.70;99.90;;;;;;5014064;28;20706;-83
2022/04/30 02:16:42;;;;;;;0.83;0.83;;;9.70;99.90;;;;;;5015124;28;20218;-83
2022/04/30 02:19:08;;;;;;;1.27;1.03;;;9.60;99.90;;;;;;5012978;28;20194;-83
2022/04/30 02:21:35;;;;;;;4.43;1.17;;;9.70;99.90;;;;;;5014509;28;20235;-83
2022/04/30 02:24:02;;;;;;;0.97;0.97;;;9.70;99.90;;;;;;5013853;28;20212;-83
2022/04/30 02:26:29;;;;;;;0.93;0.90;;;9.80;99.90;;;;;;4997559;28;20202;-83
2022/04/30 02:28:57;;;;;;;1.07;0.87;;;9.80;99.90;;;;;;4998612;28;20222;-84
2022/04/30 02:31:26;;;;;;;3.37;1.43;;;9.80;99.90;;;;;;5004385;28;20207;-83
2022/04/30 02:33:56;;;;;;;1.93;1.00;;;9.90;99.90;;;;;;4998077;28;20206;-83
2022/04/30 02:36:29;;;;;;;0.77;0.77;;;10.00;99.90;;;;;;5006572;28;20188;-83
2022/04/30 02:38:55;;;;;;;0.90;0.90;;;10.00;99.90;;;;;;4997132;28;21180;-83
2022/04/30 02:41:22;;;;;;;1.47;1.37;;;10.10;99.90;;;;;;5005045;28;20309;-83
2022/04/30 02:43:52;;;;;;;0.73;0.73;;;10.10;99.90;;;;;;5004758;28;20225;-83
2022/04/30 02:46:20;;;;;;;6.27;1.83;;;10.10;99.90;;;;;;4997899;28;20187;-83
2022/04/30 02:48:46;;;;;;;0.77;0.77;;;10.10;99.90;;;;;;4998929;28;20182;-83
2022/04/30 02:51:14;;;;;;;1.77;1.23;;;10.00;99.90;;;;;;5004569;28;20207;-83
2022/04/30 02:53:40;;;;;;;1.33;1.33;;;10.00;99.90;;;;;;5005048;28;20223;-84
2022/04/30 02:56:06;;;;;;;0.63;0.63;;;9.90;99.90;;;;;;4998304;28;20233;-84
2022/04/30 03:01:18;;;;;;;1.20;0.87;;;9.90;99.90;;;;;;4999425;28;20261;-83
2022/04/30 03:03:44;;;;;;;1.40;1.10;;;9.90;99.90;;;;;;5005988;28;20704;-83
2022/04/30 03:06:10;;;;;;;5.73;1.70;;;9.90;99.90;;;;;;4999018;28;20274;-83
2022/04/30 03:08:35;;;;;;;2.03;1.33;;;9.80;99.90;;;;;;4998843;28;20208;-83
2022/04/30 03:11:03;;;;;;;1.57;1.50;;;9.80;99.90;;;;;;5004929;28;20318;-83
2022/04/30 03:13:30;;;;;;;1.70;1.00;;;9.80;99.90;;;;;;5004952;28;20196;-83
2022/04/30 03:21:41;;;;;;;1.70;0.90;;;9.90;99.90;;;;;;4999412;28;20239;-83
2022/04/30 03:21:44;;;;;;;0.87;0.83;;;10.00;99.90;;;;;;4998436;28;20299;-83
2022/04/30 03:24:11;;;;;;;0.93;0.77;;;10.00;99.90;;;;;;4999364;28;20203;-83
2022/04/30 03:26:37;;;;;;;1.83;1.30;;;10.00;99.90;;;;;;4996600;28;20230;-83
2022/04/30 03:29:03;;;;;;;0.97;0.80;;;10.10;99.90;;;;;;5005093;28;20182;-83
2022/04/30 03:31:30;;;;;;;0.60;0.60;;;10.10;99.90;;;;;;4997114;28;20703;-82
2022/04/30 03:33:56;;;;;;;2.53;1.43;;;10.20;99.90;;;;;;4998861;28;20182;-83
2022/04/30 03:36:22;;;;;;;1.20;0.57;;;10.30;99.90;;;;;;4998685;28;21133;-81
2022/04/30 03:38:47;;;;;;;0.73;0.73;;;10.30;99.90;;;;;;5005023;28;20190;-82
2022/04/30 03:41:15;;;;;;;2.40;0.70;;;10.40;99.90;;;;;;4996775;28;20199;-83
2022/04/30 03:43:41;;;;;;;0.80;0.80;;;10.50;99.90;;;;;;4997470;28;20202;-83
2022/04/30 03:46:07;;;;;;;1.80;1.70;;;10.40;99.90;;;;;;4997896;28;21248;-83
2022/04/30 03:48:33;;;;;;;2.47;0.93;;;10.40;99.90;;;;;;4998382;28;20183;-83
2022/04/30 03:50:58;;;;;;;1.00;0.70;;;10.50;99.90;;;;;;4998139;28;20286;-83
2022/04/30 03:53:24;;;;;;;0.97;0.90;;;10.50;99.90;;;;;;4999324;28;20322;-83
2022/04/30 03:55:49;;;;;;;1.43;0.90;;;10.40;99.90;;;;;;4997975;28;20258;-83
2022/04/30 03:58:15;;;;;;;0.83;0.73;;;10.40;99.90;;;;;;5004563;28;20179;-83
2022/04/30 04:00:41;;;;;;;9.77;1.40;;;10.50;99.90;;;;;;4998330;28;20203;-83
2022/04/30 04:03:06;;;;;;;1.23;1.13;;;10.40;99.90;;;;;;4997367;28;20664;-83
2022/04/30 04:05:33;;;;;;;1.17;0.67;;;10.50;99.90;;;;;;4996674;28;20207;-83
2022/04/30 04:07:59;;;;;;;0.97;0.93;;;10.40;99.90;;;;;;5003305;28;20203;-83
2022/04/30 04:10:25;;;;;;;3.40;0.80;;;10.40;99.90;;;;;;4998569;28;20217;-82
2022/04/30 04:12:50;;;;;;;1.00;0.80;;;10.40;99.90;;;;;;4997015;28;21027;-83
2022/04/30 04:18:00;;;;;;;0.40;0.40;;;10.40;99.90;;;;;;4999127;28;20186;-83
2022/04/30 04:20:25;;;;;;;1.03;0.60;;;10.50;99.90;;;;;;5003019;28;20206;-83
2022/04/30 04:22:55;;;;;;;0.43;0.43;;;10.40;99.90;;;;;;4998078;28;20203;-83
2022/04/30 04:28:05;;;;;;;0.50;0.50;;;10.40;99.90;;;;;;4998837;28;20254;-83
2022/04/30 04:30:32;;;;;;;1.47;1.17;;;10.50;99.90;;;;;;5002807;28;20677;-82
2022/04/30 04:32:58;;;;;;;0.70;0.70;;;10.40;99.90;;;;;;5003793;28;20204;-83
2022/04/30 04:35:24;;;;;;;0.40;0.40;;;10.60;99.90;;;;;;4995720;28;20187;-83
2022/04/30 04:37:50;;;;;;;0.50;0.40;;;10.70;99.90;;;;;;4996399;28;20329;-83
2022/04/30 04:40:17;;;;;;;0.67;0.67;;;10.70;99.90;;;;;;5006845;28;20694;-83
2022/04/30 04:42:43;;;;;;;0.27;0.27;;;10.80;99.90;;;;;;5003910;28;20218;-83
2022/04/30 04:45:09;;;;;;;1.60;1.30;;;11.00;99.90;;;;;;4999356;28;20272;-84
2022/04/30 04:47:36;;;;;;;0.30;0.30;;;10.90;99.90;;;;;;5003595;28;20202;-84
2022/04/30 04:50:08;;;;;;;0.60;0.60;;;11.00;99.90;;;;;;5013321;28;20665;-83
2022/04/30 04:52:34;;;;;;;0.60;0.60;;;11.20;99.90;;;;;;5000614;28;20263;-83
2022/04/30 04:54:59;;;;;;;0.73;0.73;;;11.20;99.90;;;;;;5002285;28;20267;-84
2022/04/30 04:57:25;;;;;;;0.47;0.47;;;11.40;99.90;;;;;;5001956;28;20297;-84
2022/04/30 04:59:51;;;;;;;1.43;0.60;;;11.40;99.90;;;;;;5002145;28;20202;-82
2022/04/30 05:02:18;;;;;;;0.73;0.73;;;11.30;99.90;;;;;;5000314;28;20222;-83
2022/04/30 05:04:43;;;;;;;0.37;0.37;;;11.30;99.90;;;;;;5006373;28;20278;-84
2022/04/30 05:07:09;;;;;;;0.80;0.80;;;11.60;99.90;;;;;;5006815;28;20274;-84
2022/04/30 05:09:34;;;;;;;0.50;0.30;;;11.60;99.90;;;;;;4999541;28;20783;-83
2022/04/30 05:12:02;;;;;;;0.37;0.37;;;11.80;99.90;;;;;;5002521;28;20203;-84
2022/04/30 05:14:32;;;;;;;0.43;0.40;;;11.60;99.90;;;;;;5007400;28;20254;-83
2022/04/30 05:17:02;;;;;;;0.73;0.73;;;11.70;99.90;;;;;;5002457;28;20207;-82
2022/04/30 05:19:27;;;;;;;4.47;1.20;;;11.50;99.90;;;;;;5004283;28;20905;-82
2022/04/30 05:21:53;;;;;;;0.60;0.60;;;11.10;99.90;;;;;;5008579;28;20215;-81
2022/04/30 05:24:19;;;;;;;1.10;0.50;;;11.00;99.90;;;;;;5017928;28;20194;-80
2022/04/30 05:26:44;;;;;;;1.07;1.00;;;10.90;99.90;;;;;;5002150;28;20244;-81
2022/04/30 05:29:10;;;;;;;0.90;0.83;;;10.80;99.90;;;;;;5001936;28;20275;-80
2022/04/30 05:31:35;;;;;;;0.40;0.40;;;10.90;99.90;;;;;;5002764;28;20211;-80
2022/04/30 05:34:01;;;;;;;0.67;0.63;;;10.90;99.90;;;;;;5003311;28;20188;-80
2022/04/30 05:36:27;;;;;;;0.63;0.63;;;11.10;99.90;;;;;;5008472;28;20187;-80
2022/04/30 05:38:52;;;;;;;0.43;0.43;;;10.70;99.90;;;;;;5017912;28;20716;-80
2022/04/30 05:41:18;;;;;;;0.87;0.80;;;10.60;99.90;;;;;;5007806;28;20268;-80
2022/04/30 05:43:43;;;;;;;0.63;0.63;;;10.60;99.90;;;;;;5017405;28;20217;-80
2022/04/30 05:46:09;;;;;;;1.20;1.03;;;10.50;99.90;;;;;;5000520;28;20188;-81
2022/04/30 05:48:35;;;;;;;0.80;0.80;;;10.40;99.90;;;;;;5002661;28;20584;-81
2022/04/30 05:51:02;;;;;;;1.30;0.50;;;10.40;99.90;;;;;;5003519;28;20569;-80
2022/04/30 05:53:28;;;;;;;1.97;0.50;;;10.40;99.90;;;;;;5007282;28;20186;-80
2022/04/30 05:55:53;;;;;;;0.43;0.43;;;10.20;99.90;;;;;;5017715;28;20198;-81
2022/04/30 05:58:19;;;;;;;0.27;0.27;;;10.30;99.90;;;;;;5002083;28;20214;-80
2022/04/30 06:00:44;;;;;;;0.37;0.30;;;10.40;99.90;;;;;;5001366;28;20215;-80
2022/04/30 06:03:10;;;;;;;0.37;0.37;;;10.50;99.90;;;;;;5000023;28;20672;-81
2022/04/30 06:05:37;;;;;;;1.20;0.67;;;10.30;99.90;;;;;;5001456;28;20209;-84
2022/04/30 06:08:03;;;;;;;1.10;0.50;;;10.40;99.90;;;;;;4999506;28;20311;-85
2022/04/30 06:10:29;;;;;;;1.70;0.97;;;10.40;99.90;;;;;;5005552;28;21121;-86
2022/04/30 06:12:54;;;;;;;0.83;0.57;;;10.40;99.90;;;;;;4995558;28;20186;-86
2022/04/30 06:15:20;;;;;;;1.00;1.00;;;10.30;99.90;;;;;;5005993;28;20218;-85
2022/04/30 06:17:45;;;;;;;0.80;0.80;;;10.20;99.90;;;;;;5005169;28;20192;-85
2022/04/30 06:20:11;;;;;;;1.07;0.73;;;10.00;99.90;;;;;;5000069;28;20186;-85
2022/04/30 06:22:37;;;;;;;1.13;1.13;;;10.00;99.90;;;;;;5005261;28;20303;-85
2022/04/30 06:25:03;;;;;;;0.40;0.40;;;9.90;99.90;;;;;;4999005;28;20207;-86
2022/04/30 06:27:28;;;;;;;0.93;0.70;;;9.50;99.90;;;;;;4998207;28;20276;-86
2022/04/30 06:29:54;;;;;;;1.00;0.43;;;9.50;99.90;;;;;;5005758;28;20202;-86
2022/04/30 06:32:19;;;;;;;0.43;0.37;;;9.70;99.90;;;;;;5004590;28;20695;-85
2022/04/30 06:34:45;;;;;;;0.40;0.40;;;9.80;99.90;;;;;;4998966;28;20194;-85
2022/04/30 06:37:10;;;;;;;0.50;0.50;;;9.70;99.90;;;;;;4998901;28;20182;-86
2022/04/30 06:39:36;;;;;;;0.70;0.50;;;9.50;99.90;;;;;;5014371;28;20297;-86
2022/04/30 06:42:02;;;;;;;0.60;0.60;;;9.50;99.90;;;;;;5005687;28;20199;-85
2022/04/30 06:44:27;;;;;;;2.73;1.67;;;9.50;99.90;;;;;;5005321;28;20978;-85
2022/04/30 06:46:53;;;;;;;1.50;0.67;;;9.40;99.90;;;;;;5004697;28;20194;-86
2022/04/30 06:49:18;;;;;;;0.70;0.60;;;9.30;99.90;;;;;;5005014;28;20234;-86
2022/04/30 06:51:45;;;;;;;1.73;1.00;;;9.30;99.90;;;;;;5007707;28;20207;-85
2022/04/30 06:59:41;;;;;;;1.07;0.77;;;9.40;99.90;;;;;;4997477;28;20210;-85
2022/04/30 07:02:17;;;;;;;1.10;0.80;;;9.30;99.90;;;;;;5004470;28;20224;-85
2022/04/30 07:04:44;;;;;;;0.57;0.57;;;9.30;99.90;;;;;;5004465;28;20218;-86
2022/04/30 07:07:10;;;;;;;0.50;0.50;;;9.30;99.90;;;;;;4996793;28;20207;-85
2022/04/30 07:09:37;;;;;;;1.70;0.80;;;9.30;99.90;;;;;;5004170;28;20187;-85
2022/04/30 07:12:05;;;;;;;0.60;0.60;;;9.40;99.90;;;;;;5004685;28;20210;-86
2022/04/30 07:14:32;;;;;;;0.53;0.53;;;9.50;99.90;;;;;;5003275;28;20183;-86
2022/04/30 07:16:57;;;;;;;1.27;0.97;;;9.40;99.90;;;;;;4998317;28;20186;-84
2022/04/30 07:19:23;;;;;;;0.80;0.77;;;9.50;99.90;;;;;;4998911;28;20181;-86
2022/04/30 07:21:49;;;;;;;0.70;0.40;;;9.60;99.90;;;;;;4997231;28;20704;-86
2022/04/30 07:24:14;;;;;;;1.27;1.10;;;9.40;99.90;;;;;;5003776;28;20210;-86
2022/04/30 07:26:40;;;;;;;0.67;0.50;;;9.50;99.90;;;;;;5004809;28;20214;-86
2022/04/30 07:29:05;;;;;;;0.20;0.20;;;9.50;99.90;;;;;;5004002;28;20772;-85
2022/04/30 07:31:31;;;;;;;0.73;0.37;;;9.70;99.90;;;;;;5004603;28;20214;-86
2022/04/30 07:33:57;;;;;;;1.17;0.70;;;9.60;99.90;;;;;;5003763;28;20179;-85
2022/04/30 07:36:22;;;;;;;1.93;1.83;;;9.70;99.90;;;;;;5004151;28;20261;-86
2022/04/30 07:38:48;;;;;;;0.40;0.40;;;9.70;99.90;;;;;;4998457;28;20645;-85
2022/04/30 07:41:13;;;;;;;0.30;0.30;;;9.70;99.90;;;;;;5003576;28;20206;-85
2022/04/30 07:43:39;;;;;;;0.70;0.70;;;9.70;99.90;;;;;;5014552;28;20554;-82
2022/04/30 07:46:05;;;;;;;0.77;0.60;;;9.70;99.90;;;;;;5014573;28;20207;-81
2022/04/30 07:48:31;;;;;;;0.90;0.63;;;9.80;99.90;;;;;;4996495;28;20561;-82
2022/04/30 07:50:57;;;;;;;0.40;0.40;;;9.70;99.90;;;;;;5015435;28;20198;-83
2022/04/30 07:53:24;;;;;;;0.43;0.30;;;9.70;99.90;;;;;;4998809;28;21223;-82
2022/04/30 07:55:51;;;;;;;0.47;0.47;;;9.60;99.90;;;;;;5004222;28;20353;-82
2022/04/30 07:58:16;;;;;;;1.00;0.90;;;9.60;99.90;;;;;;4999329;28;20186;-82
2022/04/30 08:00:42;;;;;;;0.43;0.43;;;9.60;99.90;;;;;;5005524;28;20214;-82
2022/04/30 08:03:07;;;;;;;0.50;0.40;;;9.60;99.90;;;;;;5006225;28;20298;-82
2022/04/30 08:05:34;;;;;;;0.53;0.53;;;9.60;99.90;;;;;;5007218;28;20192;-82
2022/04/30 08:07:59;;;;;;;1.20;0.83;;;9.70;99.90;;;;;;5016118;28;20672;-81
2022/04/30 08:10:25;;;;;;;1.33;1.23;;;9.60;99.90;;;;;;5006575;28;20277;-82
2022/04/30 08:12:54;;;;;;;0.27;0.27;;;9.50;99.90;;;;;;5006417;28;20594;-81
2022/04/30 08:15:23;;;;;;;0.63;0.63;;;9.50;99.90;;;;;;5001973;28;20286;-81
2022/04/30 08:17:49;;;;;;;0.47;0.47;;;9.50;99.90;;;;;;5000141;28;20210;-81
2022/04/30 08:20:15;;;;;;;0.60;0.60;;;9.60;99.90;;;;;;5001400;28;20220;-82
2022/04/30 08:22:41;;;;;;;0.67;0.67;;;9.80;99.90;;;;;;5003983;28;20207;-81
2022/04/30 08:25:07;;;;;;;1.17;0.97;;;9.70;99.90;;;;;;4999888;28;20199;-81
2022/04/30 08:27:33;;;;;;;0.50;0.50;;;9.60;99.90;;;;;;5008432;28;20601;-81
2022/04/30 08:29:59;;;;;;;0.30;0.30;;;9.70;99.90;;;;;;5003709;28;20242;-82
2022/04/30 08:32:25;;;;;;;1.03;0.80;;;9.70;99.90;;;;;;5008355;28;20968;-82
2022/04/30 08:34:51;;;;;;;4.47;0.30;;;9.60;99.90;;;;;;5016257;28;20186;-81
2022/04/30 08:37:16;;;;;;;0.40;0.33;;;9.60;99.90;;;;;;5018827;28;20204;-82
2022/04/30 08:39:43;;;;;;;0.83;0.60;;;9.60;99.90;;;;;;5003988;28;20305;-81
2022/04/30 08:42:08;;;;;;;0.93;0.47;;;9.60;99.90;;;;;;5017836;28;20229;-81
2022/04/30 08:44:37;;;;;;;0.30;0.30;;;9.60;99.90;;;;;;5018551;28;20186;-81
2022/04/30 08:47:04;;;;;;;0.40;0.37;;;9.60;99.90;;;;;;5008966;28;20621;-81
2022/04/30 08:49:34;;;;;;;0.60;0.60;;;9.70;99.90;;;;;;5008678;28;20205;-82
2022/04/30 08:51:59;;;;;;;0.30;0.30;;;9.70;99.90;;;;;;5018780;28;20293;-82
2022/04/30 08:54:25;;;;;;;0.30;0.30;;;9.70;99.90;;;;;;5001592;28;20290;-82
2022/04/30 08:56:53;;;;;;;0.53;0.30;;;9.60;99.90;;;;;;5010013;28;20622;-81
2022/04/30 08:59:20;;;;;;;0.83;0.83;;;9.70;99.90;;;;;;5011028;28;20606;-81
2022/04/30 09:01:53;;;;;;;0.33;0.33;;;9.70;99.90;;;;;;5004400;28;20643;-81
2022/04/30 09:04:19;;;;;;;0.50;0.50;;;9.80;99.90;;;;;;5009637;28;20207;-82
2022/04/30 09:06:51;;;;;;;0.40;0.40;;;9.90;99.90;;;;;;5009361;28;20202;-82
2022/04/30 09:09:30;;;;;;;0.57;0.57;;;10.00;99.90;;;;;;5002179;28;20198;-82
2022/04/30 09:12:07;;;;;;;0.30;0.30;;;10.20;99.90;;;;;;5002622;28;20213;-82
2022/04/30 09:14:33;;;;;;;0.87;0.30;;;10.20;99.90;;;;;;5004238;28;20198;-81
2022/04/30 09:17:04;;;;;;;0.80;0.80;;;10.20;99.90;;;;;;5004697;28;20655;-82
2022/04/30 09:19:31;;;;;;;3.27;0.77;;;10.30;99.90;;;;;;5017520;28;20196;-81
2022/04/30 09:21:56;;;;;;;0.60;0.60;;;10.10;99.90;;;;;;5000520;28;20552;-81
2022/04/30 09:24:22;;;;;;;0.40;0.40;;;10.10;99.90;;;;;;5001030;28;20218;-80
2022/04/30 09:26:47;;;;;;;0.13;0.13;;;10.20;99.90;;;;;;5015289;28;20682;-80
2022/04/30 09:29:23;;;;;;;1.97;0.73;;;10.30;99.90;;;;;;5001827;28;20198;-80
2022/04/30 09:31:53;;;;;;;1.27;0.83;;;10.40;99.90;;;;;;4999505;28;20298;-80
2022/04/30 09:39:49;;;;;;;0.73;0.73;;;10.30;99.90;;;;;;4999568;28;20295;-80
2022/04/30 09:42:15;;;;;;;0.40;0.40;;;10.30;99.90;;;;;;5001784;28;20298;-79
2022/04/30 09:44:40;;;;;;;0.30;0.30;;;10.40;99.90;;;;;;5000426;28;20191;-79
2022/04/30 09:47:07;;;;;;;0.93;0.83;;;10.30;99.90;;;;;;5006707;28;20482;-80
2022/04/30 09:55:04;;;;;;;0.60;0.60;;;10.10;99.90;;;;;;5001277;28;20185;-80
2022/04/30 09:57:34;;;;;;;0.77;0.73;;;10.00;99.90;;;;;;5001112;28;20553;-82
2022/04/30 10:00:00;;;;;;;0.13;0.13;;;10.00;99.90;;;;;;5008923;28;20190;-82
2022/04/30 10:02:30;;;;;;;1.20;0.37;;;10.10;99.90;;;;;;5007910;28;20219;-82
2022/04/30 10:04:56;;;;;;;0.27;0.27;;;10.00;99.90;;;;;;5002476;28;20194;-82
2022/04/30 10:07:24;;;;;;;0.50;0.47;;;10.40;99.90;;;;;;5002794;28;20226;-82
2022/04/30 10:10:18;;;;;;;0.70;0.70;;;10.60;99.90;;;;;;5009167;28;20186;-82
2022/04/30 10:13:07;;;;;;;0.47;0.47;;;10.80;99.90;;;;;;5002517;28;20190;-83
2022/04/30 10:15:50;;;;;;;0.20;0.20;;;10.70;99.90;;;;;;5003488;28;20176;-82
2022/04/30 10:18:18;;;;;;;0.70;0.43;;;10.50;99.90;;;;;;5001398;28;20219;-82
2022/04/30 10:20:56;;;;;;;0.57;0.57;;;10.50;99.90;;;;;;5007989;28;20198;-82
2022/04/30 10:23:22;;;;;;;0.53;0.50;;;10.70;99.90;;;;;;5015257;28;20294;-82
2022/04/30 10:25:48;;;;;;;0.40;0.40;;;10.70;99.90;;;;;;5003450;28;20282;-82
2022/04/30 10:28:17;;;;;;;0.93;0.60;;;10.80;99.90;;;;;;5001244;28;20303;-82
2022/04/30 10:30:44;;;;;;;1.90;0.87;;;11.00;99.90;;;;;;5001281;28;20199;-82
2022/04/30 10:33:10;;;;;;;1.10;0.63;;;10.90;99.90;;;;;;4999091;28;20237;-82
2022/04/30 10:35:40;;;;;;;0.37;0.37;;;11.00;99.90;;;;;;5006944;28;20198;-82
2022/04/30 10:38:20;;;;;;;0.63;0.60;;;10.90;99.90;;;;;;5000799;28;20684;-82
2022/04/30 10:41:00;;;;;;;0.60;0.60;;;10.90;99.90;;;;;;5001385;28;20210;-80
2022/04/30 10:43:32;;;;;;;0.27;0.27;;;10.60;99.90;;;;;;5014905;28;20223;-80
2022/04/30 10:45:58;;;;;;;0.60;0.60;;;10.40;99.90;;;;;;5002846;28;20579;-80
2022/04/30 10:48:25;;;;;;;0.27;0.27;;;10.30;99.90;;;;;;5001810;28;20179;-80
2022/04/30 10:51:14;;;;;;;0.33;0.33;;;10.40;99.90;;;;;;5018481;28;20215;-80
2022/04/30 10:53:45;;;;;;;0.37;0.37;;;10.40;99.90;;;;;;5004700;28;20176;-80
2022/04/30 10:56:11;;;;;;;0.87;0.87;;;10.60;99.90;;;;;;5001593;28;20325;-80
2022/04/30 10:58:38;;;;;;;0.63;0.63;;;10.50;99.90;;;;;;5002274;28;20193;-80
2022/04/30 11:01:17;;;;;;;0.50;0.50;;;10.40;99.90;;;;;;5000367;28;20211;-80
2022/04/30 11:03:44;;;;;;;0.60;0.60;;;10.30;99.90;;;;;;5006218;28;20703;-81
2022/04/30 11:06:11;;;;;;;0.70;0.70;;;10.20;99.90;;;;;;5000552;28;20609;-80
2022/04/30 11:08:37;;;;;;;1.17;1.03;;;10.30;99.90;;;;;;5000735;28;20207;-79
2022/04/30 11:11:03;;;;;;;0.67;0.40;;;10.30;99.90;;;;;;5008348;28;20199;-80
2022/04/30 11:13:29;;;;;;;0.70;0.70;;;10.50;99.90;;;;;;5000012;28;20197;-80
2022/04/30 11:15:58;;;;;;;3.57;1.90;;;10.30;99.90;;;;;;5016390;28;20674;-79
2022/04/30 11:18:25;;;;;;;1.40;1.33;;;10.10;99.90;;;;;;5001315;28;20600;-80
2022/04/30 11:21:00;;;;;;;0.70;0.57;;;10.20;99.90;;;;;;5000068;28;20211;-80
2022/04/30 11:23:26;;;;;;;0.47;0.47;;;10.20;99.90;;;;;;4997884;28;20209;-80
2022/04/30 11:25:52;;;;;;;0.63;0.63;;;10.00;99.90;;;;;;5015192;28;20606;-80
2022/04/30 11:28:18;;;;;;;2.67;0.90;;;9.90;99.90;;;;;;5015614;28;20921;-82
2022/04/30 11:30:46;;;;;;;1.57;0.83;;;9.90;99.90;;;;;;4999129;28;20214;-80
2022/04/30 11:33:14;;;;;;;1.13;1.03;;;9.90;99.90;;;;;;5000041;28;20186;-80
2022/04/30 11:35:40;;;;;;;1.30;1.20;;;10.00;99.90;;;;;;5003197;28;20198;-80
2022/04/30 11:38:10;;;;;;;0.83;0.83;;;10.00;99.90;;;;;;5003301;28;20182;-80
2022/04/30 11:40:41;;;;;;;0.47;0.47;;;10.00;99.90;;;;;;5001308;28;20589;-80
2022/04/30 11:43:06;;;;;;;0.60;0.60;;;10.10;99.90;;;;;;5006430;28;20339;-80
2022/04/30 11:45:32;;;;;;;0.77;0.77;;;10.10;99.90;;;;;;5016293;28;20183;-80
2022/04/30 11:47:58;;;;;;;2.23;1.13;;;10.10;99.90;;;;;;4999706;28;20604;-80
2022/04/30 11:50:25;;;;;;;0.47;0.47;;;10.10;99.90;;;;;;5001240;28;20186;-80
2022/04/30 11:52:51;;;;;;;0.43;0.43;;;10.10;99.90;;;;;;5004072;28;20197;-79
2022/04/30 11:55:20;;;;;;;1.07;0.97;;;10.20;99.90;;;;;;5014716;28;20273;-80
2022/04/30 11:57:46;;;;;;;1.40;1.27;;;10.20;99.90;;;;;;4999360;28;20187;-80
2022/04/30 12:00:13;;;;;;;0.40;0.40;;;10.20;99.90;;;;;;5013872;28;20197;-80
2022/04/30 12:02:40;;;;;;;3.93;2.03;;;10.50;99.90;;;;;;4997997;28;20262;-80
2022/04/30 12:05:07;;;;;;;2.00;0.80;;;10.40;99.90;;;;;;4998938;28;20294;-80
2022/04/30 12:07:50;;;;;;;0.77;0.60;;;10.30;99.90;;;;;;4998607;28;20234;-79
2022/04/30 12:10:22;;;;;;;1.53;0.63;;;10.40;99.90;;;;;;4998070;28;20183;-79
2022/04/30 12:12:48;;;;;;;1.37;1.00;;;10.50;99.90;;;;;;4997641;28;20182;-80
2022/04/30 12:15:25;;;;;;;1.10;0.80;;;10.50;99.90;;;;;;4998185;28;20579;-80
2022/04/30 12:26:25;;;;;;;1.40;1.27;;;10.90;99.90;;;;;;5000015;28;20609;-80
2022/04/30 12:28:52;;;;;;;0.67;0.67;;;10.70;99.90;;;;;;5016662;28;20186;-80
2022/04/30 12:31:19;;;;;;;0.97;0.97;;;10.60;99.90;;;;;;4998459;28;20776;-80
2022/04/30 12:33:50;;;;;;;1.57;0.87;;;11.00;99.90;;;;;;5005877;28;20813;-79
2022/04/30 12:36:17;;;;;;;1.80;1.60;;;11.00;99.90;;;;;;5000788;28;20206;-80
2022/04/30 12:38:56;;;;;;;1.07;1.00;;;10.80;99.90;;;;;;5000780;28;20191;-80
2022/04/30 12:41:23;;;;;;;0.87;0.70;;;11.00;99.90;;;;;;4999870;28;20256;-80
2022/04/30 12:43:49;;;;;;;0.73;0.73;;;10.90;99.90;;;;;;5005309;28;20215;-80
2022/04/30 12:46:21;;;;;;;1.57;1.03;;;10.90;99.90;;;;;;4999866;28;20183;-80
2022/04/30 12:48:49;;;;;;;0.63;0.63;;;11.00;99.90;;;;;;5000945;28;20186;-80
2022/04/30 12:51:16;;;;;;;1.07;0.90;;;11.10;99.90;;;;;;4998460;28;20230;-79
2022/04/30 12:53:42;;;;;;;0.53;0.47;;;11.50;99.90;;;;;;5005027;28;21210;-80
2022/04/30 12:56:07;;;;;;;1.20;0.63;;;11.70;99.90;;;;;;5005172;28;20275;-80
2022/04/30 12:58:34;;;;;;;1.03;0.87;;;12.00;99.90;;;;;;5004388;28;20282;-80
2022/04/30 13:01:00;;;;;;;0.57;0.57;;;12.10;99.90;;;;;;4998030;28;20214;-80
2022/04/30 13:03:27;;;;;;;0.97;0.97;;;12.10;99.90;;;;;;5007172;28;20203;-80
2022/04/30 13:05:53;;;;;;;1.60;0.83;;;12.10;99.90;;;;;;5014192;28;20191;-80
2022/04/30 13:08:18;;;;;;;1.23;1.00;;;12.00;99.90;;;;;;4998442;28;20282;-80
2022/04/30 13:13:31;;;;;;;0.73;0.73;;;12.00;99.90;;;;;;5002746;28;20190;-80
2022/04/30 13:15:57;;;;;;;1.17;0.97;;;11.80;99.90;;;;;;5019601;28;20183;-80
2022/04/30 13:18:23;;;;;;;2.30;1.53;;;11.30;99.90;;;;;;5008994;28;20211;-80
2022/04/30 13:20:49;;;;;;;0.73;0.73;;;11.30;99.90;;;;;;5007169;28;20211;-80
2022/04/30 13:23:14;;;;;;;1.40;1.30;;;11.50;99.90;;;;;;5009159;28;20579;-80
2022/04/30 13:25:40;;;;;;;1.73;1.10;;;11.20;99.90;;;;;;5001743;28;20190;-80
2022/04/30 13:28:06;;;;;;;0.97;0.83;;;11.50;99.90;;;;;;5002735;28;20179;-80
2022/04/30 13:30:31;;;;;;;3.57;0.87;;;11.40;99.90;;;;;;5004255;28;20207;-80
2022/04/30 13:32:57;;;;;;;2.07;1.20;;;11.10;99.90;;;;;;5005634;28;20187;-80
2022/04/30 13:35:22;;;;;;;0.63;0.57;;;10.80;99.90;;;;;;5007556;28;20684;-79